WEATHER DATA

YESTERDAY
Time Temp. Dewp. Hum. Wind dir Wind speed Wind gust Bar. 1h Prec. 24h Prec.
00:05 16.9 12.6 76 0 0.3 1018.1 0.0000 0.0000
00:16 16.9 12.8 77 0 0.6 1018.3 0.0000 0.0000
00:26 16.9 12.8 77 0 0.3 1018.7 0.0000 0.0000
00:36 16.9 12.8 77 0 0.3 1018.6 0.0000 0.0000
00:46 16.9 13 78 0 0.6 1018.5 0.0000 0.0000
00:56 16.9 13 78 0 0.6 1018.9 0.0000 0.0000
01:06 17 13.1 78 0 0.6 1018.9 0.0000 0.0000
01:16 17 13.3 79 0 0.6 1019 0.1010 0.1010
01:24 17.1 13.4 79 135 0.3 0.8 1018.8 0.3030 0.3030
01:33 17.1 13.6 80 270 0.3 0.6 1018.9 0.4040 0.4040
01:44 17 13.7 81 0 0.6 1018.7 0.6060 0.6060
01:54 16.9 13.8 82 195 0.3 0.6 1018.6 0.6060 0.6060
02:04 16.7 13.6 82 270 0.3 0.6 1018.5 0.6060 0.6060
02:14 16.6 13.7 83 0 0.6 1018.4 0.5050 0.6060
02:24 16.4 13.5 83 270 0.3 0.6 1018.4 0.3030 0.6060
02:34 16.2 13.3 83 0 0.6 1018.6 0.1010 0.6060
02:44 15.9 13 83 189 0.3 0.6 1018.5 0.0000 0.6060
02:55 15.7 13 84 0 0.6 1018.5 0.0000 0.6060
03:04 15.5 13 85 225 0.3 0.6 1018.6 0.0000 0.6060
03:14 15.3 12.8 85 0 0.6 1018.5 0.0000 0.6060
03:24 15.1 12.8 86 0 0.6 1019.1 0.0000 0.6060
03:35 14.9 12.6 86 225 0.3 0.6 1018.7 0.0000 0.6060
03:45 14.7 12.4 86 210 0.3 0.8 1019 0.0000 0.6060
03:54 14.6 12.5 87 212 0.3 0.6 1019.1 0.0000 0.6060
04:05 14.5 12.4 87 198 0.3 0.6 1019 0.0000 0.6060
04:15 14.4 12.3 87 204 0.3 0.6 1019 0.0000 0.6060
04:25 14.2 12.2 88 180 0.3 0.6 1019 0.0000 0.6060
04:35 14.1 12.1 88 198 0.3 0.6 1018.9 0.0000 0.6060
04:45 14.1 12.1 88 0 0.6 1019.1 0.0000 0.6060
04:55 14 12 88 192 0.3 0.8 1019 0.0000 0.6060
05:05 13.9 12.1 89 0 0.6 1019 0.0000 0.6060
05:16 13.9 12.1 89 0 0.6 1019 0.0000 0.6060
05:25 13.9 12.1 89 0 0.3 1019.2 0.0000 0.6060
05:35 13.8 12 89 225 0.3 0.3 1019.6 0.0000 0.6060
05:45 13.9 12.1 89 0 0.6 1019.4 0.0000 0.6060
05:56 13.9 12.1 89 0 0.3 1019.3 0.0000 0.6060
06:05 14 12.2 89 0 0.6 1019.2 0.0000 0.6060
06:15 14 12.2 89 239 0.3 0.6 1019.2 0.0000 0.6060
06:26 14 12.2 89 0 0.3 1019.1 0.0000 0.6060
06:36 14 12.2 89 0 0.3 1019.6 0.0000 0.6060
06:46 14 12.2 89 0 0.3 1019.5 0.0000 0.6060
06:55 14.1 12.1 88 0 0.3 1019.8 0.0000 0.6060
07:06 14.1 12.1 88 270 0.3 0.6 1019.7 0.0000 0.6060
07:16 14.2 12.2 88 0 0.6 1019.9 0.0000 0.6060
07:26 14.3 12.3 88 270 0.3 0.8 1019.9 0.0000 0.6060
07:36 14.5 12.5 88 270 0.3 0.6 1020.1 0.0000 0.6060
07:46 14.6 12.6 88 270 0.3 0.8 1020.3 0.0000 0.6060
07:56 14.7 12.7 88 270 0.3 0.6 1020.5 0.0000 0.6060
08:06 14.9 12.9 88 270 0.3 0.6 1020.5 0.0000 0.6060
08:17 14.9 12.8 87 270 0.3 0.6 1020.9 0.0000 0.6060
08:26 15 12.9 87 231 0.3 0.6 1021 0.0000 0.6060
08:36 15.2 13.1 87 270 0.3 0.6 1021 0.0000 0.6060
08:47 15.5 13.3 87 270 0.3 1.1 1021.1 0.0000 0.6060
08:57 15.6 13.3 86 270 0.3 0.8 1021.2 0.0000 0.6060
09:07 15.7 13.2 85 270 0.3 1.4 1021.2 0.0000 0.6060
09:16 15.8 13.1 84 270 0.3 1.4 1021.3 0.0000 0.6060
09:27 15.8 12.9 83 270 0.3 0.8 1021.4 0.0000 0.6060
09:37 15.9 12.8 82 270 0.3 0.8 1021.4 0.0000 0.6060
09:47 16.1 13 82 270 0.3 0.8 1021.5 0.0000 0.6060
09:57 16.1 12.5 79 270 0.3 1.1 1021.7 0.0000 0.6060
10:07 16.1 12.5 79 270 0.3 0.6 1021.7 0.0000 0.6060
10:17 16.1 12.3 78 270 0.3 0.8 1022 0.0000 0.6060
10:27 16.3 12.5 78 270 0.3 0.8 1022 0.0000 0.6060
10:38 16.3 12.3 77 270 0.3 0.6 1022.3 0.0000 0.6060
10:47 16.6 12.6 77 270 0.3 1.1 1022.2 0.0000 0.6060
10:57 17 12.9 77 270 0.3 0.8 1022.3 0.0000 0.6060
11:08 17.4 12.9 75 270 0.3 0.6 1022.2 0.0000 0.6060
11:17 17.8 13.1 74 270 0.3 0.8 1022.2 0.0000 0.6060
11:27 18.2 13.3 73 270 0.3 1.4 1022.2 0.1010 0.7070
11:37 18.6 13.5 72 270 0.6 1.1 1022.5 0.1010 0.7070
11:47 19.1 13.7 71 270 0.6 1.4 1022.2 0.1010 0.7070
11:56 19.6 13.8 69 270 0.6 1.4 1022.3 0.1010 0.7070
12:06 20 13.7 67 270 0.3 1.1 1022.3 0.1010 0.7070
12:17 20.7 14.1 66 270 0.6 1.1 1022.4 0.0000 0.7070
12:32 21.5 14.9 66 270 0.6 1.7 1022.4 0.0000 0.7070
12:41 21.8 14.7 64 270 0.3 0.8 1022.5 0.0000 0.7070
12:51 22.4 15 63 270 0.6 1.4 1022.4 0.0000 0.7070
13:00 22.5 14.9 62 270 0.6 1.7 1022.5 0.0000 0.7070
13:11 22.6 14.7 61 270 0.3 1.1 1022.3 0.0000 0.7070
13:21 22.7 14.5 60 270 0.3 1.1 1022.5 0.0000 0.7070
13:30 22.6 14.4 60 270 0.3 1.4 1022.4 0.0000 0.7070
13:40 22.6 14.4 60 270 0.6 1.4 1022.5 0.0000 0.7070
13:51 22.7 14.3 59 270 0.6 1.4 1022.2 0.0000 0.7070
14:01 22.3 13.9 59 270 0.3 1.1 1022.4 0.0000 0.7070
14:10 22.2 14.3 61 270 0.6 1.7 1022.2 0.0000 0.7070
14:21 22.5 14.6 61 270 0.6 1.7 1022.3 0.0000 0.7070
14:31 22.5 13.8 58 270 0.6 1.4 1022.3 0.0000 0.7070
14:40 22.7 14.5 60 270 0.6 1.9 1022.6 0.0000 0.7070
14:51 22.7 14 58 270 0.6 1.7 1022.5 0.0000 0.7070
15:01 22.4 13.7 58 255 0.6 1.4 1022.3 0.0000 0.7070
15:11 22.2 13.6 58 270 0.3 1.4 1022.4 0.0000 0.7070
15:20 22.1 13.7 59 270 0.6 1.4 1022.3 0.0000 0.7070
15:31 22.2 13.6 58 270 0.6 1.4 1022.2 0.0000 0.7070
15:41 22.1 13.5 58 270 0.3 1.1 1022.3 0.0000 0.7070
15:51 22 13.6 59 270 0.3 1.1 1021.8 0.0000 0.7070
16:01 21.8 13.2 58 270 0.3 1.7 1021.8 0.0000 0.7070
16:11 21.7 13.1 58 270 0.3 1.1 1021.7 0.0000 0.7070
16:21 21.5 12.9 58 270 0.3 0.8 1021.5 0.0000 0.7070
16:30 21.5 13.2 59 270 0.6 1.1 1021.7 0.0000 0.7070
16:41 21.5 13.4 60 270 0.3 1.4 1021.5 0.0000 0.7070
16:51 21.5 13.4 60 270 0.3 1.1 1021.4 0.0000 0.7070
17:03 21.9 13.8 60 270 0.6 1.4 1021.3 0.0000 0.7070
17:23 22.8 14.4 59 270 0.3 1.4 1021 0.0000 0.7070
17:33 23.1 14.4 58 270 0.6 1.4 1021.1 0.0000 0.7070
17:53 22.9 13.9 57 270 0.3 0.8 1021.2 0.0000 0.7070
18:13 22.1 13.2 57 293 0.6 1.4 1021.3 0.0000 0.7070
18:23 22.1 13.5 58 270 0.3 0.8 1021.2 0.0000 0.7070
18:33 22.1 13.2 57 270 0.6 1.4 1021.4 0.0000 0.7070
18:43 21.9 13.3 58 270 0.3 0.8 1021.4 0.0000 0.7070
18:53 21.7 13.1 58 270 0.3 0.8 1021.5 0.0000 0.7070
19:03 21.5 12.9 58 270 0.3 1.1 1021.6 0.0000 0.7070
19:13 21.4 12.8 58 270 0.3 0.6 1021.4 0.0000 0.7070
19:23 21.2 12.6 58 270 0.3 1.4 1021.4 0.0000 0.7070
19:33 20.9 12.6 59 270 0.3 0.8 1021.5 0.0000 0.7070
19:43 20.6 12.6 60 270 0.3 0.8 1021.6 0.0000 0.7070
19:53 20.2 12.4 61 0 0.6 1021.6 0.0000 0.7070
20:03 19.6 12.4 63 0 0.6 1021.6 0.0000 0.7070
20:13 19 12.3 65 0 0.3 1021.7 0.0000 0.7070
20:33 17.9 11.7 67 0 0.6 1021.8 0.0000 0.7070
20:43 17.4 11.2 67 0 0.3 1021.8 0.0000 0.7070
20:53 16.9 11 68 0 0.6 1022.1 0.0000 0.7070
21:02 16.5 10.8 69 189 0.3 0.6 1022.2 0.0000 0.7070
21:13 16 10.5 70 0 0.6 1022.1 0.0000 0.7070
21:24 15.6 10.6 72 170 0.3 0.6 1022.4 0.0000 0.7070
21:33 15.3 10.5 73 0 0.6 1022.4 0.0000 0.7070
21:43 14.9 10.5 75 184 0.3 0.6 1022.4 0.0000 0.7070
21:53 14.6 10.6 77 198 0.3 0.6 1022.5 0.0000 0.7070
22:04 14.3 10.3 77 0 0.6 1022.6 0.0000 0.7070
22:13 14.3 10.5 78 0 0.6 1022.7 0.0000 0.7070
22:23 14.2 10.6 79 0 0.6 1022.8 0.0000 0.7070
22:34 14.2 10.6 79 210 0.3 0.6 1022.7 0.0000 0.7070
22:43 14.1 10.5 79 0 0.6 1022.7 0.0000 0.7070
22:53 14.1 10.5 79 225 0.3 0.6 1022.8 0.0000 0.7070
23:03 14.1 10.5 79 0 0.3 1022.9 0.0000 0.7070
23:14 14.2 10.6 79 225 0.3 0.6 1022.9 0.0000 0.7070
23:23 14.2 10.6 79 0 0.6 1022.8 0.0000 0.7070
23:33 14.1 10.5 79 0 0.6 1022.9 0.0000 0.7070
23:44 14.1 10.5 79 0 0.3 1023.1 0.0000 0.7070
23:54 14 10.6 80 0 0.6 1022.9 0.0000

DAY STATISTIC

2018-04-23
TEMPERATURE
AVERAGE
17.6
HIGH
23.1
17:33
LOW
13.8
05:35
PRESSURE
AVERAGE
1021.0
HIGH
1023.1
23:44
LOW
1018.1
00:05
DEWPOINT
AVERAGE
12.7
HIGH
15.0
12:51
LOW
10.3
22:04
HUMIDITY
AVERAGE
74
HIGH
89
05:05
LOW
57
17:53
WIND SPEED
AVERAGE
0.3
HIGH
0.6
11:37
WIND GUST
AVERAGE
0.8
HIGH
1.9
14:40
WIND DIRECTION
PREVAILING
W
52.5%
N
0.0
NE
0.0
E
0.0
SE
0.7
S
7.9
SW
7.2
W
52.5
NW
0.7
PRECIPITATION
RAIN HOUR
0.6
RAIN DAY
0.7
TEMPERATURE (°C)
LOW
13.8
HIGH
23.1
AVERAGE
17.6
PRESSURE (hpa)
LOW
1018.1
HIGH
1023.1
AVERAGE
1021.0
DEVICE